sensor_id;sensor_type;location;lat;lon;timestamp;pressure;altitude;pressure_sealevel;temperature;humidity
6528;BME280;3297;42.664;23.256;2022-09-09T00:02:21;50416.69;;;-139.84;76.29
6528;BME280;3297;42.664;23.256;2022-09-09T00:10:26;50432.22;;;-139.84;75.55
6528;BME280;3297;42.664;23.256;2022-09-09T00:13:24;50440.00;;;-139.84;76.57
6528;BME280;3297;42.664;23.256;2022-09-09T00:16:19;50428.34;;;-139.84;76.46
6528;BME280;3297;42.664;23.256;2022-09-09T00:19:02;50455.56;;;-139.84;76.18
6528;BME280;3297;42.664;23.256;2022-09-09T00:21:36;50432.22;;;-139.84;76.23
6528;BME280;3297;42.664;23.256;2022-09-09T00:24:11;50373.91;;;-139.84;76.02
6528;BME280;3297;42.664;23.256;2022-09-09T00:26:48;50436.13;;;-139.84;77.11
6528;BME280;3297;42.664;23.256;2022-09-09T00:29:31;50443.91;;;-139.84;77.12
6528;BME280;3297;42.664;23.256;2022-09-09T00:32:13;50416.69;;;-139.84;76.90
6528;BME280;3297;42.664;23.256;2022-09-09T00:35:02;50426.41;;;-139.84;76.90
6528;BME280;3297;42.664;23.256;2022-09-09T00:37:28;50416.69;;;-139.84;76.74
6528;BME280;3297;42.664;23.256;2022-09-09T00:39:59;50416.69;;;-139.84;76.48
6528;BME280;3297;42.664;23.256;2022-09-09T00:42:43;50447.78;;;-139.84;76.71
6528;BME280;3297;42.664;23.256;2022-09-09T00:45:25;50430.28;;;-139.84;76.73
6528;BME280;3297;42.664;23.256;2022-09-09T00:47:59;50430.28;;;-139.84;76.99
6528;BME280;3297;42.664;23.256;2022-09-09T00:50:38;50438.06;;;-139.84;76.81
6528;BME280;3297;42.664;23.256;2022-09-09T00:58:24;50457.50;;;-139.84;77.55
6528;BME280;3297;42.664;23.256;2022-09-09T01:00:53;50395.31;;;-139.84;78.15
6528;BME280;3297;42.664;23.256;2022-09-09T01:11:30;50434.19;;;-139.84;78.59
6528;BME280;3297;42.664;23.256;2022-09-09T01:17:08;50445.84;;;-139.84;78.38
6528;BME280;3297;42.664;23.256;2022-09-09T01:25:22;50451.66;;;-139.84;77.74
6528;BME280;3297;42.664;23.256;2022-09-09T01:27:56;50455.56;;;-139.84;77.82
6528;BME280;3297;42.664;23.256;2022-09-09T01:30:23;50445.84;;;-139.84;77.74
6528;BME280;3297;42.664;23.256;2022-09-09T01:32:54;50424.47;;;-139.84;77.67
6528;BME280;3297;42.664;23.256;2022-09-09T01:35:48;50424.47;;;-139.84;77.61
6528;BME280;3297;42.664;23.256;2022-09-09T01:38:20;50455.56;;;-139.84;77.62
6528;BME280;3297;42.664;23.256;2022-09-09T01:40:47;50440.00;;;-139.84;77.37
6528;BME280;3297;42.664;23.256;2022-09-09T01:43:13;50455.56;;;-139.84;77.50
6528;BME280;3297;42.664;23.256;2022-09-09T01:45:41;50482.78;;;-139.84;77.46
6528;BME280;3297;42.664;23.256;2022-09-09T01:48:08;50455.56;;;-139.84;78.49
6528;BME280;3297;42.664;23.256;2022-09-09T01:50:33;50443.91;;;-139.84;78.10
6528;BME280;3297;42.664;23.256;2022-09-09T01:53:00;50457.50;;;-139.84;78.22
6528;BME280;3297;42.664;23.256;2022-09-09T01:55:33;50461.38;;;-139.84;78.98
6528;BME280;3297;42.664;23.256;2022-09-09T02:01:22;50412.78;;;-139.84;78.48
6528;BME280;3297;42.664;23.256;2022-09-09T02:03:56;50447.78;;;-139.84;78.38
6528;BME280;3297;42.664;23.256;2022-09-09T02:06:30;50463.34;;;-139.84;78.38
6528;BME280;3297;42.664;23.256;2022-09-09T02:09:01;50443.91;;;-139.84;78.28
6528;BME280;3297;42.664;23.256;2022-09-09T02:11:29;50436.13;;;-139.84;78.24
6528;BME280;3297;42.664;23.256;2022-09-09T02:14:06;50443.91;;;-139.84;78.22
6528;BME280;3297;42.664;23.256;2022-09-09T02:16:48;50436.13;;;-139.84;79.02
6528;BME280;3297;42.664;23.256;2022-09-09T02:21:52;50451.66;;;-139.84;79.30
6528;BME280;3297;42.664;23.256;2022-09-09T02:24:19;50399.19;;;-139.84;79.32
6528;BME280;3297;42.664;23.256;2022-09-09T02:26:49;50471.09;;;-139.84;79.29
6528;BME280;3297;42.664;23.256;2022-09-09T02:29:28;50467.22;;;-139.84;79.28
6528;BME280;3297;42.664;23.256;2022-09-09T02:31:58;50432.22;;;-139.84;79.23
6528;BME280;3297;42.664;23.256;2022-09-09T02:34:28;50438.06;;;-139.84;79.09
6528;BME280;3297;42.664;23.256;2022-09-09T02:36:57;50451.66;;;-139.84;79.60
6528;BME280;3297;42.664;23.256;2022-09-09T02:39:22;50432.22;;;-139.84;79.55
6528;BME280;3297;42.664;23.256;2022-09-09T02:41:48;50428.34;;;-139.84;79.66
6528;BME280;3297;42.664;23.256;2022-09-09T02:44:15;50455.56;;;-139.84;79.74
6528;BME280;3297;42.664;23.256;2022-09-09T02:52:30;50441.94;;;-139.84;81.12
6528;BME280;3297;42.664;23.256;2022-09-09T02:55:04;50467.22;;;-139.84;80.84
6528;BME280;3297;42.664;23.256;2022-09-09T02:57:33;50428.34;;;-139.84;80.93
6528;BME280;3297;42.664;23.256;2022-09-09T02:59:59;50440.00;;;-139.84;80.84
6528;BME280;3297;42.664;23.256;2022-09-09T03:02:26;50432.22;;;-139.84;80.68
6528;BME280;3297;42.664;23.256;2022-09-09T03:04:51;50440.00;;;-139.84;80.52
6528;BME280;3297;42.664;23.256;2022-09-09T03:07:18;50455.56;;;-139.84;80.46
6528;BME280;3297;42.664;23.256;2022-09-09T03:09:44;50428.34;;;-139.84;80.99
6528;BME280;3297;42.664;23.256;2022-09-09T03:12:10;50449.72;;;-139.84;81.35
6528;BME280;3297;42.664;23.256;2022-09-09T03:14:37;50451.66;;;-139.84;81.12
6528;BME280;3297;42.664;23.256;2022-09-09T03:17:04;50451.66;;;-139.84;80.90
6528;BME280;3297;42.664;23.256;2022-09-09T03:19:31;50455.56;;;-139.84;80.51
6528;BME280;3297;42.664;23.256;2022-09-09T03:21:57;50445.84;;;-139.84;80.30
6528;BME280;3297;42.664;23.256;2022-09-09T03:24:24;50443.91;;;-139.84;80.68
6528;BME280;3297;42.664;23.256;2022-09-09T03:26:49;50447.78;;;-139.84;80.54
6528;BME280;3297;42.664;23.256;2022-09-09T03:29:16;50438.06;;;-139.84;80.22
6528;BME280;3297;42.664;23.256;2022-09-09T03:31:42;50455.56;;;-139.84;80.72
6528;BME280;3297;42.664;23.256;2022-09-09T03:34:08;50410.84;;;-139.84;81.12
6528;BME280;3297;42.664;23.256;2022-09-09T03:36:34;50469.16;;;-139.84;81.71
6528;BME280;3297;42.664;23.256;2022-09-09T03:39:00;50471.09;;;-139.84;81.40
6528;BME280;3297;42.664;23.256;2022-09-09T03:41:26;50426.41;;;-139.84;81.18
6528;BME280;3297;42.664;23.256;2022-09-09T03:43:53;50426.41;;;-139.84;80.95
6528;BME280;3297;42.664;23.256;2022-09-09T03:46:23;50428.34;;;-139.84;81.19
6528;BME280;3297;42.664;23.256;2022-09-09T03:48:50;50441.94;;;-139.84;81.45
6528;BME280;3297;42.664;23.256;2022-09-09T03:51:16;50463.34;;;-139.84;80.72
6528;BME280;3297;42.664;23.256;2022-09-09T03:53:42;50447.78;;;-139.84;80.65
6528;BME280;3297;42.664;23.256;2022-09-09T03:56:08;50436.13;;;-139.84;80.54
6528;BME280;3297;42.664;23.256;2022-09-09T03:58:35;50451.66;;;-139.84;80.56
6528;BME280;3297;42.664;23.256;2022-09-09T04:01:06;50416.69;;;-139.84;80.30
6528;BME280;3297;42.664;23.256;2022-09-09T04:03:34;50447.78;;;-139.84;80.85
6528;BME280;3297;42.664;23.256;2022-09-09T04:06:01;50475.00;;;-139.84;80.89
6528;BME280;3297;42.664;23.256;2022-09-09T04:08:28;50430.28;;;-139.84;81.48
6528;BME280;3297;42.664;23.256;2022-09-09T04:10:56;50451.66;;;-139.84;81.20
6528;BME280;3297;42.664;23.256;2022-09-09T04:13:23;50451.66;;;-139.84;81.23
6528;BME280;3297;42.664;23.256;2022-09-09T04:15:58;50475.00;;;-139.84;81.40
6528;BME280;3297;42.664;23.256;2022-09-09T04:18:24;50432.22;;;-139.84;81.45
6528;BME280;3297;42.664;23.256;2022-09-09T04:20:52;50486.66;;;-139.84;82.48
6528;BME280;3297;42.664;23.256;2022-09-09T04:23:18;50455.56;;;-139.84;82.08
6528;BME280;3297;42.664;23.256;2022-09-09T04:28:13;50443.91;;;-139.84;82.27
6528;BME280;3297;42.664;23.256;2022-09-09T04:30:39;50465.28;;;-139.84;82.24
6528;BME280;3297;42.664;23.256;2022-09-09T04:33:05;50438.06;;;-139.84;82.71
6528;BME280;3297;42.664;23.256;2022-09-09T04:35:32;50543.03;;;-139.84;90.92
6528;BME280;3297;42.664;23.256;2022-09-09T04:37:58;50525.53;;;-139.84;75.80
6528;BME280;3297;42.664;23.256;2022-09-09T04:40:24;50544.97;;;-139.84;66.62
6528;BME280;3297;42.664;23.256;2022-09-09T04:42:50;50533.31;;;-139.84;63.74
6528;BME280;3297;42.664;23.256;2022-09-09T04:45:16;50548.84;;;-139.84;61.97
6528;BME280;3297;42.664;23.256;2022-09-09T04:47:42;50537.19;;;-139.84;60.01
6528;BME280;3297;42.664;23.256;2022-09-09T04:50:08;50509.97;;;-139.84;61.80
6528;BME280;3297;42.664;23.256;2022-09-09T04:52:36;50544.97;;;-139.84;63.71
6528;BME280;3297;42.664;23.256;2022-09-09T04:55:03;50486.66;;;-139.84;65.40
6528;BME280;3297;42.664;23.256;2022-09-09T04:57:29;50502.19;;;-139.84;66.99
6528;BME280;3297;42.664;23.256;2022-09-09T04:59:58;50515.81;;;-139.84;68.40
6528;BME280;3297;42.664;23.256;2022-09-09T05:02:23;50486.66;;;-139.84;69.34
6528;BME280;3297;42.664;23.256;2022-09-09T05:04:49;50498.31;;;-139.84;69.96
6528;BME280;3297;42.664;23.256;2022-09-09T05:07:15;50502.19;;;-139.84;71.91
6528;BME280;3297;42.664;23.256;2022-09-09T05:09:40;50471.09;;;-139.84;73.41
6528;BME280;3297;42.664;23.256;2022-09-09T05:12:06;50459.44;;;-139.84;73.33
6528;BME280;3297;42.664;23.256;2022-09-09T05:14:31;50486.66;;;-139.84;73.25
6528;BME280;3297;42.664;23.256;2022-09-09T05:16:57;50513.88;;;-139.84;73.30
6528;BME280;3297;42.664;23.256;2022-09-09T05:19:23;50506.09;;;-139.84;73.09
6528;BME280;3297;42.664;23.256;2022-09-09T05:21:49;50490.53;;;-139.84;72.67
6528;BME280;3297;42.664;23.256;2022-09-09T05:24:15;50494.44;;;-139.84;72.93
6528;BME280;3297;42.664;23.256;2022-09-09T05:26:41;50463.34;;;-139.84;72.17
6528;BME280;3297;42.664;23.256;2022-09-09T05:29:06;50486.66;;;-139.84;71.80
6528;BME280;3297;42.664;23.256;2022-09-09T05:31:33;50515.81;;;-139.84;71.48
6528;BME280;3297;42.664;23.256;2022-09-09T05:33:59;50500.25;;;-139.84;71.21
6528;BME280;3297;42.664;23.256;2022-09-09T05:36:24;50523.59;;;-139.84;70.32
6528;BME280;3297;42.664;23.256;2022-09-09T05:38:51;50496.38;;;-139.84;69.95
6528;BME280;3297;42.664;23.256;2022-09-09T05:41:19;50463.34;;;-139.84;69.99
6528;BME280;3297;42.664;23.256;2022-09-09T05:43:45;50517.75;;;-139.84;69.90
6528;BME280;3297;42.664;23.256;2022-09-09T05:46:14;50502.19;;;-139.84;69.41
6528;BME280;3297;42.664;23.256;2022-09-09T05:48:42;50498.31;;;-139.84;69.48
6528;BME280;3297;42.664;23.256;2022-09-09T05:51:10;50537.19;;;-139.84;68.10
6528;BME280;3297;42.664;23.256;2022-09-09T05:53:38;50533.31;;;-139.84;67.41
6528;BME280;3297;42.664;23.256;2022-09-09T05:56:12;50537.19;;;-139.84;66.62
6528;BME280;3297;42.664;23.256;2022-09-09T05:58:39;50537.19;;;-139.84;65.96
6528;BME280;3297;42.664;23.256;2022-09-09T06:01:10;50544.97;;;-139.84;63.29
6528;BME280;3297;42.664;23.256;2022-09-09T06:03:39;50597.44;;;-139.84;62.50
6528;BME280;3297;42.664;23.256;2022-09-09T06:06:07;50541.06;;;-139.84;61.67
6528;BME280;3297;42.664;23.256;2022-09-09T06:08:35;50583.84;;;-139.84;59.91
6528;BME280;3297;42.664;23.256;2022-09-09T06:11:07;50583.84;;;-139.84;58.90
6528;BME280;3297;42.664;23.256;2022-09-09T06:13:33;50587.72;;;-139.84;57.03
6528;BME280;3297;42.664;23.256;2022-09-09T06:15:59;50533.31;;;-139.84;56.19
6528;BME280;3297;42.664;23.256;2022-09-09T06:18:25;50603.28;;;-139.84;54.92
6528;BME280;3297;42.664;23.256;2022-09-09T06:20:59;50560.50;;;-139.84;53.61
6528;BME280;3297;42.664;23.256;2022-09-09T06:23:26;50603.28;;;-139.84;52.39
6528;BME280;3297;42.664;23.256;2022-09-09T06:28:32;50579.94;;;-139.84;51.09
6528;BME280;3297;42.664;23.256;2022-09-09T06:31:02;50552.75;;;-139.84;51.19
6528;BME280;3297;42.664;23.256;2022-09-09T06:33:34;50611.06;;;-139.84;50.50
6528;BME280;3297;42.664;23.256;2022-09-09T06:36:01;50591.63;;;-139.84;49.34
6528;BME280;3297;42.664;23.256;2022-09-09T06:38:27;50673.25;;;-139.84;48.55
6528;BME280;3297;42.664;23.256;2022-09-09T06:40:53;50581.91;;;-139.84;47.62
6528;BME280;3297;42.664;23.256;2022-09-09T06:43:24;50579.94;;;-139.84;46.65
6528;BME280;3297;42.664;23.256;2022-09-09T06:46:03;50628.53;;;-139.84;46.09
6528;BME280;3297;42.664;23.256;2022-09-09T06:48:30;50599.38;;;-139.84;46.40
6528;BME280;3297;42.664;23.256;2022-09-09T06:51:08;50591.63;;;-139.84;45.51
6528;BME280;3297;42.664;23.256;2022-09-09T06:53:35;50579.94;;;-139.84;44.78
6528;BME280;3297;42.664;23.256;2022-09-09T06:58:45;50568.28;;;-139.84;44.42
6528;BME280;3297;42.664;23.256;2022-09-09T07:01:14;50579.94;;;-139.84;43.95
6528;BME280;3297;42.664;23.256;2022-09-09T07:03:44;50603.28;;;-139.84;44.59
6528;BME280;3297;42.664;23.256;2022-09-09T07:06:23;50589.66;;;-139.84;43.92
6528;BME280;3297;42.664;23.256;2022-09-09T07:08:54;50572.19;;;-139.84;43.71
6528;BME280;3297;42.664;23.256;2022-09-09T07:11:22;50556.63;;;-139.84;42.67
6528;BME280;3297;42.664;23.256;2022-09-09T07:13:48;50562.47;;;-139.84;42.25
6528;BME280;3297;42.664;23.256;2022-09-09T07:16:16;50560.50;;;-139.84;42.67
6528;BME280;3297;42.664;23.256;2022-09-09T07:18:42;50591.63;;;-139.84;41.86
6528;BME280;3297;42.664;23.256;2022-09-09T07:21:12;50572.19;;;-139.84;40.45
6528;BME280;3297;42.664;23.256;2022-09-09T07:23:39;50576.06;;;-139.84;40.10
6528;BME280;3297;42.664;23.256;2022-09-09T07:26:09;50609.09;;;-139.84;40.86
6528;BME280;3297;42.664;23.256;2022-09-09T07:28:36;50595.50;;;-139.84;40.01
6528;BME280;3297;42.664;23.256;2022-09-09T07:31:03;50576.06;;;-139.84;41.15
6528;BME280;3297;42.664;23.256;2022-09-09T07:33:29;50591.63;;;-139.84;40.93
6528;BME280;3297;42.664;23.256;2022-09-09T07:36:08;50607.16;;;-139.84;39.85
6528;BME280;3297;42.664;23.256;2022-09-09T07:38:44;50601.34;;;-139.84;39.55
6528;BME280;3297;42.664;23.256;2022-09-09T07:41:14;50593.56;;;-139.84;38.67
6528;BME280;3297;42.664;23.256;2022-09-09T07:43:44;50614.94;;;-139.84;38.35
6528;BME280;3297;42.664;23.256;2022-09-09T07:46:12;50583.84;;;-139.84;37.53
6528;BME280;3297;42.664;23.256;2022-09-09T07:48:39;50611.06;;;-139.84;36.95
6528;BME280;3297;42.664;23.256;2022-09-09T07:51:14;50599.38;;;-139.84;37.09
6528;BME280;3297;42.664;23.256;2022-09-09T07:53:48;50611.06;;;-139.84;37.45
6528;BME280;3297;42.664;23.256;2022-09-09T07:56:17;50587.72;;;-139.84;36.83
6528;BME280;3297;42.664;23.256;2022-09-09T07:58:46;50603.28;;;-139.84;36.16
6528;BME280;3297;42.664;23.256;2022-09-09T08:01:24;50593.56;;;-139.84;35.44
6528;BME280;3297;42.664;23.256;2022-09-09T08:03:58;50583.84;;;-139.84;36.34
6528;BME280;3297;42.664;23.256;2022-09-09T08:06:26;50566.34;;;-139.84;35.88
6528;BME280;3297;42.664;23.256;2022-09-09T08:08:52;50560.50;;;-139.84;36.33
6528;BME280;3297;42.664;23.256;2022-09-09T08:11:18;50611.06;;;-139.84;36.81
6528;BME280;3297;42.664;23.256;2022-09-09T08:13:45;50597.44;;;-139.84;36.50
6528;BME280;3297;42.664;23.256;2022-09-09T08:16:14;50579.94;;;-139.84;36.14
6528;BME280;3297;42.664;23.256;2022-09-09T08:18:40;50587.72;;;-139.84;36.70
6528;BME280;3297;42.664;23.256;2022-09-09T08:21:14;50607.16;;;-139.84;35.86
6528;BME280;3297;42.664;23.256;2022-09-09T08:23:44;50568.28;;;-139.84;36.83
6528;BME280;3297;42.664;23.256;2022-09-09T08:26:19;50605.22;;;-139.84;36.48
6528;BME280;3297;42.664;23.256;2022-09-09T08:28:46;50576.06;;;-139.84;36.85
6528;BME280;3297;42.664;23.256;2022-09-09T08:31:44;50576.06;;;-139.84;37.42
6528;BME280;3297;42.664;23.256;2022-09-09T08:34:10;50591.63;;;-139.84;37.89
6528;BME280;3297;42.664;23.256;2022-09-09T08:36:39;50568.28;;;-139.84;39.23
6528;BME280;3297;42.664;23.256;2022-09-09T08:39:06;50583.84;;;-139.84;38.89
6528;BME280;3297;42.664;23.256;2022-09-09T08:44:44;50552.75;;;-139.84;38.70
6528;BME280;3297;42.664;23.256;2022-09-09T08:55:48;50581.91;;;-139.84;37.21
6528;BME280;3297;42.664;23.256;2022-09-09T08:58:19;50568.28;;;-139.84;37.12
6528;BME280;3297;42.664;23.256;2022-09-09T09:06:06;50560.50;;;-139.84;37.65
6528;BME280;3297;42.664;23.256;2022-09-09T09:08:48;50566.34;;;-139.84;36.89
6528;BME280;3297;42.664;23.256;2022-09-09T09:11:17;50595.50;;;-139.84;36.62
6528;BME280;3297;42.664;23.256;2022-09-09T09:16:29;50581.91;;;-139.84;36.53
6528;BME280;3297;42.664;23.256;2022-09-09T09:18:58;50595.50;;;-139.84;36.59
6528;BME280;3297;42.664;23.256;2022-09-09T09:21:44;50583.84;;;-139.84;36.39
6528;BME280;3297;42.664;23.256;2022-09-09T09:24:23;50525.53;;;-139.84;35.97
6528;BME280;3297;42.664;23.256;2022-09-09T09:26:52;50576.06;;;-139.84;36.56
6528;BME280;3297;42.664;23.256;2022-09-09T09:29:19;50576.06;;;-139.84;36.28
6528;BME280;3297;42.664;23.256;2022-09-09T09:31:56;50611.06;;;-139.84;36.53
6528;BME280;3297;42.664;23.256;2022-09-09T09:34:24;50618.81;;;-139.84;36.22
6528;BME280;3297;42.664;23.256;2022-09-09T09:36:57;50581.91;;;-139.84;36.35
6528;BME280;3297;42.664;23.256;2022-09-09T09:39:31;50578.00;;;-139.84;36.09
6528;BME280;3297;42.664;23.256;2022-09-09T09:42:10;50591.63;;;-139.84;36.18
6528;BME280;3297;42.664;23.256;2022-09-09T09:44:39;50611.06;;;-139.84;36.21
6528;BME280;3297;42.664;23.256;2022-09-09T09:47:12;50587.72;;;-139.84;36.57
6528;BME280;3297;42.664;23.256;2022-09-09T09:49:39;50517.75;;;-139.84;36.63
6528;BME280;3297;42.664;23.256;2022-09-09T09:52:06;50558.56;;;-139.84;36.54
6528;BME280;3297;42.664;23.256;2022-09-09T09:54:37;50572.19;;;-139.84;37.24
6528;BME280;3297;42.664;23.256;2022-09-09T09:57:14;50581.91;;;-139.84;36.70
6528;BME280;3297;42.664;23.256;2022-09-09T09:59:42;50591.63;;;-139.84;37.60
6528;BME280;3297;42.664;23.256;2022-09-09T10:02:19;50572.19;;;-139.84;37.02
6528;BME280;3297;42.664;23.256;2022-09-09T10:04:45;50564.41;;;-139.84;37.08
6528;BME280;3297;42.664;23.256;2022-09-09T10:07:21;50568.28;;;-139.84;37.58
6528;BME280;3297;42.664;23.256;2022-09-09T10:09:54;50566.34;;;-139.84;37.48
6528;BME280;3297;42.664;23.256;2022-09-09T10:21:06;50562.47;;;-139.84;38.23
6528;BME280;3297;42.664;23.256;2022-09-09T10:32:17;50535.25;;;-139.84;38.65
6528;BME280;3297;42.664;23.256;2022-09-09T10:34:58;50531.34;;;-139.84;38.96
6528;BME280;3297;42.664;23.256;2022-09-09T10:42:47;50525.53;;;-139.84;41.05
6528;BME280;3297;42.664;23.256;2022-09-09T10:45:18;50521.63;;;-139.84;41.57
6528;BME280;3297;42.664;23.256;2022-09-09T10:53:33;50560.50;;;-139.84;41.12
6528;BME280;3297;42.664;23.256;2022-09-09T10:56:12;50566.34;;;-139.84;41.25
6528;BME280;3297;42.664;23.256;2022-09-09T10:58:47;50523.59;;;-139.84;41.88
6528;BME280;3297;42.664;23.256;2022-09-09T11:01:26;50556.63;;;-139.84;42.08
6528;BME280;3297;42.664;23.256;2022-09-09T11:03:59;50609.09;;;-139.84;42.05
6528;BME280;3297;42.664;23.256;2022-09-09T11:06:33;50537.19;;;-139.84;42.65
6528;BME280;3297;42.664;23.256;2022-09-09T11:09:02;50595.50;;;-139.84;42.93
6528;BME280;3297;42.664;23.256;2022-09-09T11:11:39;50537.19;;;-139.84;43.15
6528;BME280;3297;42.664;23.256;2022-09-09T11:14:36;50552.75;;;-139.84;43.23
6528;BME280;3297;42.664;23.256;2022-09-09T11:17:18;50556.63;;;-139.84;43.39
6528;BME280;3297;42.664;23.256;2022-09-09T11:19:46;50537.19;;;-139.84;43.44
6528;BME280;3297;42.664;23.256;2022-09-09T11:24:48;50541.06;;;-139.84;43.42
6528;BME280;3297;42.664;23.256;2022-09-09T11:27:25;50544.97;;;-139.84;43.85
6528;BME280;3297;42.664;23.256;2022-09-09T11:30:18;50529.41;;;-139.84;43.31
6528;BME280;3297;42.664;23.256;2022-09-09T11:38:50;50579.94;;;-139.84;44.07
6528;BME280;3297;42.664;23.256;2022-09-09T11:41:18;50564.41;;;-139.84;44.33
6528;BME280;3297;42.664;23.256;2022-09-09T11:43:48;50556.63;;;-139.84;43.89
6528;BME280;3297;42.664;23.256;2022-09-09T11:46:16;50548.84;;;-139.84;44.32
6528;BME280;3297;42.664;23.256;2022-09-09T11:48:45;50572.19;;;-139.84;44.53
6528;BME280;3297;42.664;23.256;2022-09-09T12:04:14;50556.63;;;-139.84;42.37
6528;BME280;3297;42.664;23.256;2022-09-09T12:11:48;50552.75;;;-139.84;41.31
6528;BME280;3297;42.664;23.256;2022-09-09T12:14:34;50541.06;;;-139.84;41.21
6528;BME280;3297;42.664;23.256;2022-09-09T12:17:20;50572.19;;;-139.84;41.35
6528;BME280;3297;42.664;23.256;2022-09-09T12:19:48;50560.50;;;-139.84;41.57
6528;BME280;3297;42.664;23.256;2022-09-09T12:22:50;50513.88;;;-139.84;41.27
6528;BME280;3297;42.664;23.256;2022-09-09T12:28:13;50558.56;;;-139.84;41.16
6528;BME280;3297;42.664;23.256;2022-09-09T12:33:11;50525.53;;;-139.84;40.39
6528;BME280;3297;42.664;23.256;2022-09-09T12:35:43;50537.19;;;-139.84;40.51
6528;BME280;3297;42.664;23.256;2022-09-09T12:38:15;50548.84;;;-139.84;39.98
6528;BME280;3297;42.664;23.256;2022-09-09T12:40:54;50527.47;;;-139.84;40.95
6528;BME280;3297;42.664;23.256;2022-09-09T12:43:22;50558.56;;;-139.84;41.40
6528;BME280;3297;42.664;23.256;2022-09-09T12:45:50;50544.97;;;-139.84;41.69
6528;BME280;3297;42.664;23.256;2022-09-09T12:48:27;50576.06;;;-139.84;41.22
6528;BME280;3297;42.664;23.256;2022-09-09T12:50:57;50517.75;;;-139.84;41.51
6528;BME280;3297;42.664;23.256;2022-09-09T12:53:26;50560.50;;;-139.84;41.75
6528;BME280;3297;42.664;23.256;2022-09-09T12:56:09;50543.03;;;-139.84;42.13
6528;BME280;3297;42.664;23.256;2022-09-09T12:58:46;50548.84;;;-139.84;42.27
6528;BME280;3297;42.664;23.256;2022-09-09T13:01:42;50525.53;;;-139.84;42.71
6528;BME280;3297;42.664;23.256;2022-09-09T13:04:20;50525.53;;;-139.84;42.87
6528;BME280;3297;42.664;23.256;2022-09-09T13:06:47;50544.97;;;-139.84;43.34
6528;BME280;3297;42.664;23.256;2022-09-09T13:09:14;50531.34;;;-139.84;43.78
6528;BME280;3297;42.664;23.256;2022-09-09T13:11:42;50558.56;;;-139.84;44.43
6528;BME280;3297;42.664;23.256;2022-09-09T13:14:16;50543.03;;;-139.84;44.68
6528;BME280;3297;42.664;23.256;2022-09-09T13:16:58;50517.75;;;-139.84;44.85
6528;BME280;3297;42.664;23.256;2022-09-09T13:19:24;50560.50;;;-139.84;44.83
6528;BME280;3297;42.664;23.256;2022-09-09T13:21:54;50552.75;;;-139.84;44.73
6528;BME280;3297;42.664;23.256;2022-09-09T13:24:40;50541.06;;;-139.84;44.96
6528;BME280;3297;42.664;23.256;2022-09-09T13:27:26;50568.28;;;-139.84;44.50
6528;BME280;3297;42.664;23.256;2022-09-09T13:29:54;50548.84;;;-139.84;43.80
6528;BME280;3297;42.664;23.256;2022-09-09T13:32:23;50552.75;;;-139.84;43.21
6528;BME280;3297;42.664;23.256;2022-09-09T13:34:56;50548.84;;;-139.84;43.85
6528;BME280;3297;42.664;23.256;2022-09-09T13:37:26;50546.91;;;-139.84;43.50
6528;BME280;3297;42.664;23.256;2022-09-09T13:39:54;50568.28;;;-139.84;42.82
6528;BME280;3297;42.664;23.256;2022-09-09T13:42:31;50570.22;;;-139.84;43.23
6528;BME280;3297;42.664;23.256;2022-09-09T13:44:59;50552.75;;;-139.84;43.17
6528;BME280;3297;42.664;23.256;2022-09-09T13:47:43;50550.78;;;-139.84;43.48
6528;BME280;3297;42.664;23.256;2022-09-09T13:50:28;50527.47;;;-139.84;43.46
6528;BME280;3297;42.664;23.256;2022-09-09T13:52:58;50519.69;;;-139.84;43.27
6528;BME280;3297;42.664;23.256;2022-09-09T13:55:26;50539.13;;;-139.84;43.02
6528;BME280;3297;42.664;23.256;2022-09-09T13:58:00;50529.41;;;-139.84;43.26
6528;BME280;3297;42.664;23.256;2022-09-09T14:00:29;50537.19;;;-139.84;42.82
6528;BME280;3297;42.664;23.256;2022-09-09T14:02:55;50527.47;;;-139.84;43.18
6528;BME280;3297;42.664;23.256;2022-09-09T14:05:21;50548.84;;;-139.84;42.82
6528;BME280;3297;42.664;23.256;2022-09-09T14:07:48;50537.19;;;-139.84;42.47
6528;BME280;3297;42.664;23.256;2022-09-09T14:10:14;50519.69;;;-139.84;42.52
6528;BME280;3297;42.664;23.256;2022-09-09T14:12:40;50527.47;;;-139.84;42.25
6528;BME280;3297;42.664;23.256;2022-09-09T14:15:07;50531.34;;;-139.84;42.63
6528;BME280;3297;42.664;23.256;2022-09-09T14:17:33;50537.19;;;-139.84;43.20
6528;BME280;3297;42.664;23.256;2022-09-09T14:20:03;50537.19;;;-139.84;43.21
6528;BME280;3297;42.664;23.256;2022-09-09T14:22:33;50513.88;;;-139.84;43.55
6528;BME280;3297;42.664;23.256;2022-09-09T14:24:59;50525.53;;;-139.84;43.50
6528;BME280;3297;42.664;23.256;2022-09-09T14:27:24;50548.84;;;-139.84;44.33
6528;BME280;3297;42.664;23.256;2022-09-09T14:29:52;50525.53;;;-139.84;44.41
6528;BME280;3297;42.664;23.256;2022-09-09T14:32:18;50552.75;;;-139.84;44.63
6528;BME280;3297;42.664;23.256;2022-09-09T14:34:44;50498.31;;;-139.84;43.95
6528;BME280;3297;42.664;23.256;2022-09-09T14:37:10;50504.16;;;-139.84;44.35
6528;BME280;3297;42.664;23.256;2022-09-09T14:39:36;50537.19;;;-139.84;44.33
6528;BME280;3297;42.664;23.256;2022-09-09T14:42:02;50486.66;;;-139.84;44.00
6528;BME280;3297;42.664;23.256;2022-09-09T14:44:28;50502.19;;;-139.84;44.39
6528;BME280;3297;42.664;23.256;2022-09-09T14:46:53;50513.88;;;-139.84;44.60
6528;BME280;3297;42.664;23.256;2022-09-09T14:49:19;50521.63;;;-139.84;44.59
6528;BME280;3297;42.664;23.256;2022-09-09T14:51:45;50506.09;;;-139.84;44.44
6528;BME280;3297;42.664;23.256;2022-09-09T14:54:10;50521.63;;;-139.84;44.74
6528;BME280;3297;42.664;23.256;2022-09-09T14:56:37;50521.63;;;-139.84;44.82
6528;BME280;3297;42.664;23.256;2022-09-09T14:59:03;50506.09;;;-139.84;45.49
6528;BME280;3297;42.664;23.256;2022-09-09T15:01:31;50539.13;;;-139.84;45.11
6528;BME280;3297;42.664;23.256;2022-09-09T15:04:00;50504.16;;;-139.84;45.03
6528;BME280;3297;42.664;23.256;2022-09-09T15:06:28;50490.53;;;-139.84;44.88
6528;BME280;3297;42.664;23.256;2022-09-09T15:08:55;50529.41;;;-139.84;45.18
6528;BME280;3297;42.664;23.256;2022-09-09T15:11:26;50509.97;;;-139.84;45.26
6528;BME280;3297;42.664;23.256;2022-09-09T15:13:53;50537.19;;;-139.84;45.18
6528;BME280;3297;42.664;23.256;2022-09-09T15:16:24;50543.03;;;-139.84;45.27